Time;durP1;ratioP1;P1;durP2;ratioP2;P2;SDS_P1;SDS_P2;PMS_P1;PMS_P2;Temp;Humidity;BMP_temperature;BMP_pressure;BME280_temperature;BME280_humidity;BME280_pressure;Samples;Min_cycle;Max_cycle;Signal;HPM_P1;HPM_P2
2021/12/18 00:01:03;;;;;;;27.63;13.00;;;8.20;99.90;;;;;;5033978;28;20625;-70
2021/12/18 00:03:34;;;;;;;25.30;13.50;;;8.30;99.90;;;;;;5038444;28;20265;-71
2021/12/18 00:06:01;;;;;;;23.43;12.87;;;8.30;99.90;;;;;;5037011;28;20687;-70
2021/12/18 00:08:27;;;;;;;27.07;13.70;;;8.30;99.90;;;;;;5034998;28;20182;-71
2021/12/18 00:10:55;;;;;;;26.17;13.70;;;8.30;99.90;;;;;;5035301;28;20178;-69
2021/12/18 00:13:22;;;;;;;23.97;13.50;;;8.30;99.90;;;;;;5034197;28;20277;-69
2021/12/18 00:15:47;;;;;;;26.73;14.17;;;8.30;99.90;;;;;;5038590;28;20197;-70
2021/12/18 00:18:19;;;;;;;26.97;13.33;;;8.30;99.90;;;;;;5043589;28;20212;-71
2021/12/18 00:20:51;;;;;;;24.83;14.60;;;8.30;99.90;;;;;;5034482;28;20313;-71
2021/12/18 00:23:24;;;;;;;29.03;14.20;;;8.40;99.90;;;;;;5050623;28;20213;-71
2021/12/18 00:25:50;;;;;;;24.33;12.63;;;8.40;99.90;;;;;;5049064;28;20192;-70
2021/12/18 00:28:16;;;;;;;27.53;14.50;;;8.40;99.90;;;;;;5034066;28;20918;-70
2021/12/18 00:30:42;;;;;;;27.47;13.40;;;8.30;99.90;;;;;;5041883;28;20192;-70
2021/12/18 00:33:09;;;;;;;26.83;13.87;;;8.40;99.90;;;;;;5044333;28;20181;-71
2021/12/18 00:35:34;;;;;;;26.03;14.53;;;8.40;99.90;;;;;;5037792;28;20256;-70
2021/12/18 00:38:05;;;;;;;29.60;15.87;;;8.50;99.90;;;;;;5034011;28;20581;-70
2021/12/18 00:40:44;;;;;;;32.60;16.50;;;8.40;99.90;;;;;;5040119;28;20166;-70
2021/12/18 00:43:27;;;;;;;29.67;15.33;;;8.40;99.90;;;;;;5047032;28;20215;-69
2021/12/18 00:45:53;;;;;;;29.97;15.00;;;8.40;99.90;;;;;;5051949;28;20188;-70
2021/12/18 00:48:20;;;;;;;31.23;15.43;;;8.50;99.90;;;;;;5044027;28;20214;-70
2021/12/18 00:50:46;;;;;;;27.00;13.87;;;8.40;99.90;;;;;;5034506;28;20249;-68
2021/12/18 00:53:12;;;;;;;28.43;15.17;;;8.40;99.90;;;;;;5033911;28;20178;-68
2021/12/18 00:55:38;;;;;;;28.57;14.23;;;8.40;99.90;;;;;;5050620;28;20166;-69
2021/12/18 00:58:04;;;;;;;29.17;14.73;;;8.40;99.90;;;;;;5041958;28;20166;-69
2021/12/18 01:00:31;;;;;;;27.33;15.00;;;8.40;99.90;;;;;;5045465;28;20177;-68
2021/12/18 01:03:01;;;;;;;32.77;15.53;;;8.40;99.90;;;;;;5050282;28;20216;-68
2021/12/18 01:05:28;;;;;;;33.33;16.37;;;8.40;99.90;;;;;;5036282;28;20192;-67
2021/12/18 01:07:56;;;;;;;33.53;16.13;;;8.40;99.90;;;;;;5044306;28;20603;-68
2021/12/18 01:13:22;;;;;;;35.60;16.27;;;8.40;99.90;;;;;;5033521;28;20255;-69
2021/12/18 01:15:52;;;;;;;32.13;15.50;;;8.40;99.90;;;;;;5033691;28;20182;-69
2021/12/18 01:23:46;;;;;;;38.60;17.47;;;8.50;99.90;;;;;;5033151;28;20282;-69
2021/12/18 01:26:13;;;;;;;34.50;16.37;;;8.50;99.90;;;;;;5033819;28;20182;-70
2021/12/18 01:28:39;;;;;;;36.43;17.70;;;8.50;99.90;;;;;;5033101;28;20182;-69
2021/12/18 01:31:06;;;;;;;36.97;18.17;;;8.50;99.90;;;;;;5033670;28;20227;-69
2021/12/18 01:33:32;;;;;;;33.47;16.73;;;8.40;99.90;;;;;;5033099;28;20207;-69
2021/12/18 01:36:00;;;;;;;37.20;17.53;;;8.40;99.90;;;;;;5048463;28;20567;-69
2021/12/18 01:38:29;;;;;;;36.70;16.37;;;8.40;99.90;;;;;;5032925;28;20178;-69
2021/12/18 01:40:56;;;;;;;35.17;17.20;;;8.40;99.90;;;;;;5042130;28;20185;-68
2021/12/18 01:51:34;;;;;;;31.33;15.77;;;8.50;99.90;;;;;;5033318;28;20197;-70
2021/12/18 01:54:00;;;;;;;34.37;15.13;;;8.40;99.90;;;;;;5035626;28;20170;-70
2021/12/18 01:56:27;;;;;;;32.03;16.63;;;8.40;99.90;;;;;;5045550;28;20223;-70
2021/12/18 01:58:54;;;;;;;30.50;15.27;;;8.50;99.90;;;;;;5033291;28;20180;-70
2021/12/18 02:01:21;;;;;;;29.77;15.50;;;8.50;99.90;;;;;;5036599;28;20181;-69
2021/12/18 02:03:47;;;;;;;32.27;16.73;;;8.50;99.90;;;;;;5043601;28;20205;-68
2021/12/18 02:06:13;;;;;;;33.30;17.20;;;8.50;99.90;;;;;;5046513;28;20560;-69
2021/12/18 02:08:40;;;;;;;32.30;17.60;;;8.50;99.90;;;;;;5032930;28;20633;-69
2021/12/18 02:21:45;;;;;;;29.97;16.73;;;8.60;99.90;;;;;;5032707;28;20235;-69
2021/12/18 02:24:12;;;;;;;29.23;16.70;;;8.60;99.90;;;;;;5032658;28;20213;-70
2021/12/18 02:26:40;;;;;;;27.40;16.80;;;8.50;99.90;;;;;;5048089;28;20173;-69
2021/12/18 02:29:08;;;;;;;28.73;15.77;;;8.60;99.90;;;;;;5034600;28;20178;-70
2021/12/18 02:31:33;;;;;;;28.27;16.87;;;8.60;99.90;;;;;;5032287;28;20178;-68
2021/12/18 02:33:59;;;;;;;28.90;15.93;;;8.60;99.90;;;;;;5032551;28;20189;-68
2021/12/18 02:36:25;;;;;;;26.33;15.93;;;8.60;99.90;;;;;;5039299;28;20577;-69
2021/12/18 02:39:07;;;;;;;29.60;16.83;;;8.60;99.90;;;;;;5031831;28;20205;-69
2021/12/18 02:41:39;;;;;;;26.90;15.87;;;8.60;99.90;;;;;;5035795;28;20186;-70
2021/12/18 02:44:08;;;;;;;28.50;16.50;;;8.60;99.90;;;;;;5035655;28;20256;-70
2021/12/18 02:46:34;;;;;;;27.13;16.53;;;8.70;99.90;;;;;;5031982;28;20178;-70
2021/12/18 02:49:12;;;;;;;28.17;16.07;;;8.70;99.90;;;;;;5041245;28;20273;-70
2021/12/18 02:51:38;;;;;;;24.83;15.03;;;8.70;99.90;;;;;;5032918;28;20188;-70
2021/12/18 02:54:05;;;;;;;22.87;14.43;;;8.70;99.90;;;;;;5031352;28;20173;-70
2021/12/18 02:56:31;;;;;;;25.13;14.47;;;8.70;99.90;;;;;;5048138;28;20234;-70
2021/12/18 02:59:05;;;;;;;24.00;13.63;;;8.70;99.90;;;;;;5034285;28;20272;-70
2021/12/18 03:01:33;;;;;;;22.73;14.27;;;8.70;99.90;;;;;;5031951;28;20176;-69
2021/12/18 03:04:00;;;;;;;22.00;13.70;;;8.60;99.90;;;;;;5043075;28;20250;-70
2021/12/18 03:27:15;;;;;;;18.17;10.87;;;8.70;99.90;;;;;;5049603;28;20175;-68
2021/12/18 03:29:41;;;;;;;17.00;10.67;;;8.70;99.90;;;;;;5039629;28;20178;-69
2021/12/18 03:32:07;;;;;;;15.17;10.40;;;8.70;99.90;;;;;;5030240;28;20657;-68
2021/12/18 03:34:33;;;;;;;17.73;11.87;;;8.70;99.90;;;;;;5039173;28;20181;-69
2021/12/18 03:37:00;;;;;;;18.63;11.20;;;8.70;99.90;;;;;;5041502;28;20544;-69
2021/12/18 03:39:26;;;;;;;18.20;11.70;;;8.70;99.90;;;;;;5049759;28;20185;-69
2021/12/18 03:41:53;;;;;;;20.97;11.87;;;8.70;99.90;;;;;;5033345;28;20178;-69
2021/12/18 03:44:19;;;;;;;17.27;11.13;;;8.70;99.90;;;;;;5039522;28;20240;-69
2021/12/18 03:46:45;;;;;;;17.23;11.00;;;8.70;99.90;;;;;;5031060;28;20268;-68
2021/12/18 03:49:11;;;;;;;19.40;11.67;;;8.60;99.90;;;;;;5031304;28;20704;-67
2021/12/18 03:51:37;;;;;;;17.47;11.60;;;8.70;99.90;;;;;;5031266;28;20204;-69
2021/12/18 03:54:03;;;;;;;21.80;12.03;;;8.70;99.90;;;;;;5031167;28;20170;-67
2021/12/18 03:56:29;;;;;;;21.60;12.30;;;8.70;99.90;;;;;;5031178;28;20513;-65
2021/12/18 03:58:55;;;;;;;21.60;12.17;;;8.70;99.90;;;;;;5030977;28;20174;-66
2021/12/18 04:01:21;;;;;;;19.77;11.17;;;8.70;99.90;;;;;;5031497;28;20178;-67
2021/12/18 04:03:47;;;;;;;20.53;11.27;;;8.70;99.90;;;;;;5031102;28;20244;-66
2021/12/18 04:06:13;;;;;;;19.67;10.40;;;8.70;99.90;;;;;;5031231;28;20186;-66
2021/12/18 04:08:39;;;;;;;19.47;11.20;;;8.70;99.90;;;;;;5034610;28;20546;-66
2021/12/18 04:11:06;;;;;;;19.43;11.23;;;8.70;99.90;;;;;;5042949;28;20170;-67
2021/12/18 04:13:31;;;;;;;19.03;11.17;;;8.70;99.90;;;;;;5031105;28;20184;-66
2021/12/18 04:15:57;;;;;;;19.07;11.23;;;8.70;99.90;;;;;;5031026;28;20232;-71
2021/12/18 04:18:23;;;;;;;21.33;11.20;;;8.70;99.90;;;;;;5029753;28;20518;-70
2021/12/18 04:20:49;;;;;;;21.50;12.20;;;8.70;99.90;;;;;;5030852;28;20209;-70
2021/12/18 04:23:15;;;;;;;19.97;11.77;;;9.40;99.90;;;;;;5030553;28;20209;-70
2021/12/18 04:25:41;;;;;;;22.40;12.37;;;8.70;99.90;;;;;;5042979;28;20180;-70
2021/12/18 04:28:07;;;;;;;19.37;11.60;;;8.80;99.90;;;;;;5044256;28;20170;-70
2021/12/18 04:30:33;;;;;;;22.57;13.30;;;8.70;99.90;;;;;;5030965;28;20178;-71
2021/12/18 04:32:59;;;;;;;26.50;13.60;;;8.70;99.90;;;;;;5030968;28;20696;-71
2021/12/18 04:35:27;;;;;;;27.07;14.03;;;8.70;99.90;;;;;;5029675;28;20273;-69
2021/12/18 04:37:53;;;;;;;26.17;13.93;;;8.80;99.90;;;;;;5030564;28;20205;-70
2021/12/18 04:40:25;;;;;;;27.60;14.00;;;8.80;99.90;;;;;;5034321;28;20185;-69
2021/12/18 04:42:51;;;;;;;23.60;14.33;;;8.70;99.90;;;;;;5030406;28;20201;-69
2021/12/18 04:45:16;;;;;;;25.27;13.57;;;8.70;99.90;;;;;;5037942;28;20204;-69
2021/12/18 04:47:42;;;;;;;28.60;14.03;;;8.80;99.90;;;;;;5032793;28;20631;-69
2021/12/18 04:50:08;;;;;;;23.53;13.60;;;8.80;99.90;;;;;;5043276;28;20178;-69
2021/12/18 04:52:34;;;;;;;22.07;13.13;;;8.80;99.90;;;;;;5031469;28;20288;-68
2021/12/18 04:55:00;;;;;;;22.40;13.80;;;8.70;99.90;;;;;;5034396;28;20176;-69
2021/12/18 04:57:26;;;;;;;23.33;14.67;;;8.80;99.90;;;;;;5034712;28;20253;-69
2021/12/18 04:59:52;;;;;;;24.97;15.67;;;8.80;99.90;;;;;;5038409;28;20173;-69
2021/12/18 05:02:22;;;;;;;29.17;15.20;;;8.70;99.90;;;;;;5037660;28;20637;-69
2021/12/18 05:04:48;;;;;;;25.40;14.77;;;8.80;99.90;;;;;;5034814;28;20174;-69
2021/12/18 05:07:14;;;;;;;23.67;16.13;;;8.80;99.90;;;;;;5036282;28;20587;-69
2021/12/18 05:09:41;;;;;;;25.13;15.87;;;8.90;99.90;;;;;;5051106;28;20177;-69
2021/12/18 05:12:08;;;;;;;25.17;15.53;;;8.90;99.90;;;;;;5037677;28;20181;-69
2021/12/18 05:14:34;;;;;;;24.13;15.97;;;8.80;99.90;;;;;;5050423;28;20181;-69
2021/12/18 05:17:00;;;;;;;22.50;14.10;;;8.80;99.90;;;;;;5042702;28;20640;-69
2021/12/18 05:19:26;;;;;;;20.37;14.33;;;8.80;99.90;;;;;;5032644;28;20204;-69
2021/12/18 05:21:52;;;;;;;22.40;14.63;;;8.80;99.90;;;;;;5032964;28;20226;-68
2021/12/18 05:24:18;;;;;;;22.57;15.07;;;8.80;99.90;;;;;;5033734;28;20218;-69
2021/12/18 05:26:44;;;;;;;24.90;16.10;;;8.80;99.90;;;;;;5046691;28;20684;-68
2021/12/18 05:29:09;;;;;;;24.03;14.27;;;8.80;99.90;;;;;;5033646;28;20232;-68
2021/12/18 05:31:35;;;;;;;23.10;15.33;;;8.80;99.90;;;;;;5034217;28;20660;-68
2021/12/18 05:34:03;;;;;;;21.70;14.87;;;8.90;99.90;;;;;;5033567;28;20186;-68
2021/12/18 05:36:34;;;;;;;23.30;15.17;;;8.90;99.90;;;;;;5050474;28;20181;-68
2021/12/18 05:39:05;;;;;;;21.80;14.93;;;8.80;99.90;;;;;;5050145;28;20184;-69
2021/12/18 05:41:32;;;;;;;24.17;14.63;;;8.90;99.90;;;;;;5034406;28;20636;-69
2021/12/18 05:43:58;;;;;;;21.07;13.27;;;8.90;99.90;;;;;;5042671;28;20201;-68
2021/12/18 05:46:24;;;;;;;23.83;14.00;;;8.90;99.90;;;;;;5035136;28;20214;-68
2021/12/18 05:48:50;;;;;;;23.43;14.20;;;8.80;99.90;;;;;;5039492;28;20649;-68
2021/12/18 05:51:16;;;;;;;20.30;13.20;;;8.80;99.90;;;;;;5033453;28;20201;-68
2021/12/18 05:53:42;;;;;;;21.73;14.53;;;8.80;99.90;;;;;;5033048;28;20282;-68
2021/12/18 05:56:07;;;;;;;22.80;14.03;;;8.80;99.90;;;;;;5037311;28;20618;-68
2021/12/18 05:58:33;;;;;;;21.17;13.87;;;8.80;99.90;;;;;;5031308;28;20523;-69
2021/12/18 06:00:59;;;;;;;21.10;13.67;;;8.80;99.90;;;;;;5033200;28;20182;-71
2021/12/18 06:03:26;;;;;;;23.17;14.23;;;8.80;99.90;;;;;;5045592;28;20252;-71
2021/12/18 06:05:52;;;;;;;21.23;14.03;;;8.90;99.90;;;;;;5046246;28;20816;-67
2021/12/18 06:08:18;;;;;;;21.40;13.53;;;8.80;99.90;;;;;;5032436;28;20246;-67
2021/12/18 06:10:43;;;;;;;21.17;13.63;;;8.80;99.90;;;;;;5033344;28;20261;-69
2021/12/18 06:13:09;;;;;;;21.57;13.77;;;8.90;99.90;;;;;;5032566;28;20181;-67
2021/12/18 06:15:35;;;;;;;19.27;11.77;;;8.90;99.90;;;;;;5036395;28;20165;-67
2021/12/18 06:18:01;;;;;;;22.40;13.63;;;8.90;99.90;;;;;;5041251;28;20176;-67
2021/12/18 06:20:29;;;;;;;26.40;14.07;;;8.90;99.90;;;;;;5043110;28;20189;-68
2021/12/18 06:22:55;;;;;;;22.87;14.50;;;8.90;99.90;;;;;;5032795;28;20298;-68
2021/12/18 06:25:21;;;;;;;20.93;13.13;;;8.90;99.90;;;;;;5043967;28;20173;-68
2021/12/18 06:27:47;;;;;;;24.37;14.43;;;8.90;99.90;;;;;;5036223;28;20651;-68
2021/12/18 06:30:14;;;;;;;21.70;13.10;;;8.90;99.90;;;;;;5032678;28;20181;-66
2021/12/18 06:32:40;;;;;;;23.87;13.40;;;8.90;99.90;;;;;;5032912;28;20173;-68
2021/12/18 06:35:07;;;;;;;21.10;12.50;;;8.90;99.90;;;;;;5043889;28;20689;-68
2021/12/18 06:37:33;;;;;;;24.03;13.80;;;8.90;99.90;;;;;;5035426;28;20177;-67
2021/12/18 06:39:59;;;;;;;22.90;12.97;;;8.90;99.90;;;;;;5035699;28;20515;-67
2021/12/18 06:42:24;;;;;;;24.63;13.70;;;8.90;99.90;;;;;;5031867;28;20228;-67
2021/12/18 06:44:50;;;;;;;23.67;13.77;;;8.90;99.90;;;;;;5032189;28;20575;-68
2021/12/18 06:47:16;;;;;;;24.50;13.70;;;8.90;99.90;;;;;;5032027;28;20652;-68
2021/12/18 06:49:42;;;;;;;21.93;12.97;;;8.90;99.90;;;;;;5039184;28;20213;-66
2021/12/18 06:52:08;;;;;;;23.23;13.20;;;8.80;99.90;;;;;;5031753;28;20174;-66
2021/12/18 06:54:34;;;;;;;23.83;12.90;;;8.80;99.90;;;;;;5035855;28;20681;-67
2021/12/18 06:57:01;;;;;;;20.10;13.07;;;8.90;99.90;;;;;;5051503;28;20170;-67
2021/12/18 06:59:28;;;;;;;22.97;12.57;;;8.90;99.90;;;;;;5034655;28;20594;-68
2021/12/18 07:01:54;;;;;;;19.17;12.17;;;8.90;99.90;;;;;;5039355;28;20207;-67
2021/12/18 07:04:24;;;;;;;22.50;12.73;;;8.90;99.90;;;;;;5035235;28;20223;-68
2021/12/18 07:06:51;;;;;;;23.10;12.33;;;8.80;99.90;;;;;;5042208;28;20178;-68
2021/12/18 07:09:17;;;;;;;24.30;13.13;;;8.90;99.90;;;;;;5031969;28;20268;-68
2021/12/18 07:11:44;;;;;;;24.83;12.40;;;8.90;99.90;;;;;;5031900;28;20256;-67
2021/12/18 07:14:11;;;;;;;23.00;13.13;;;8.90;99.90;;;;;;5046824;28;20169;-67
2021/12/18 07:16:36;;;;;;;22.90;12.17;;;8.90;99.90;;;;;;5030482;28;20217;-67
2021/12/18 07:19:02;;;;;;;20.87;11.70;;;8.90;99.90;;;;;;5034981;28;20252;-68
2021/12/18 07:21:28;;;;;;;20.63;11.50;;;8.90;99.90;;;;;;5043408;28;20581;-67
2021/12/18 07:23:54;;;;;;;25.23;13.00;;;8.80;99.90;;;;;;5049224;28;20236;-69
2021/12/18 07:26:20;;;;;;;24.53;11.80;;;8.80;99.90;;;;;;5033648;28;20653;-68
2021/12/18 07:28:45;;;;;;;36.17;15.93;;;8.90;99.90;;;;;;5031497;28;20665;-68
2021/12/18 07:31:11;;;;;;;22.17;11.57;;;8.90;99.90;;;;;;5031498;28;20228;-68
2021/12/18 07:33:41;;;;;;;22.13;11.83;;;8.80;99.90;;;;;;5031836;28;20844;-69
2021/12/18 07:36:08;;;;;;;24.17;12.07;;;8.80;99.90;;;;;;5039104;28;20223;-68
2021/12/18 07:38:34;;;;;;;20.53;11.30;;;8.80;99.90;;;;;;5037118;28;20181;-68
2021/12/18 07:41:00;;;;;;;23.70;12.70;;;8.80;99.90;;;;;;5034886;28;20181;-67
2021/12/18 07:43:26;;;;;;;20.97;12.27;;;8.80;99.90;;;;;;5030820;28;20214;-68
2021/12/18 07:45:52;;;;;;;22.43;12.00;;;8.80;99.90;;;;;;5030550;28;20252;-68
2021/12/18 07:48:18;;;;;;;20.23;11.13;;;8.80;99.90;;;;;;5031840;28;20177;-68
2021/12/18 07:50:44;;;;;;;22.43;11.13;;;8.80;99.90;;;;;;5037888;28;20182;-69
2021/12/18 07:53:11;;;;;;;21.03;10.77;;;8.80;99.90;;;;;;5030920;28;20231;-68
2021/12/18 07:55:38;;;;;;;21.07;10.63;;;8.80;99.90;;;;;;5035339;28;20579;-69
2021/12/18 07:58:04;;;;;;;21.50;11.43;;;8.80;99.90;;;;;;5031111;28;20182;-68
2021/12/18 08:00:30;;;;;;;26.27;11.53;;;8.80;99.90;;;;;;5035857;28;20177;-68
2021/12/18 08:02:56;;;;;;;20.20;10.67;;;8.80;99.90;;;;;;5044795;28;20707;-68
2021/12/18 08:05:22;;;;;;;21.73;10.73;;;8.80;99.90;;;;;;5039554;28;20180;-68
2021/12/18 08:07:48;;;;;;;21.60;11.70;;;8.70;99.90;;;;;;5043332;28;20177;-68
2021/12/18 08:10:15;;;;;;;23.23;11.10;;;8.80;99.90;;;;;;5041358;28;20170;-68
2021/12/18 08:12:41;;;;;;;24.10;10.57;;;8.80;99.90;;;;;;5030718;28;20166;-68
2021/12/18 08:15:08;;;;;;;21.40;11.07;;;8.80;99.90;;;;;;5039393;28;20177;-67
2021/12/18 08:17:34;;;;;;;28.30;11.57;;;8.80;99.90;;;;;;5031466;28;20184;-68
2021/12/18 08:20:00;;;;;;;20.50;10.80;;;8.80;99.90;;;;;;5031526;28;20194;-68
2021/12/18 08:22:26;;;;;;;25.97;11.57;;;8.80;99.90;;;;;;5034018;28;20213;-68
2021/12/18 08:24:52;;;;;;;21.63;11.20;;;8.80;99.90;;;;;;5041780;28;20185;-68
2021/12/18 08:27:18;;;;;;;20.73;10.60;;;8.80;99.90;;;;;;5050932;28;20176;-68
2021/12/18 08:29:44;;;;;;;20.27;11.10;;;9.10;99.90;;;;;;5053480;28;20573;-68
2021/12/18 08:32:09;;;;;;;19.93;10.93;;;8.80;99.90;;;;;;5054269;28;20169;-68
2021/12/18 08:34:35;;;;;;;22.33;11.47;;;8.80;99.90;;;;;;5051312;28;20189;-68
2021/12/18 08:37:01;;;;;;;20.97;10.53;;;8.80;99.90;;;;;;5041460;28;20178;-71
2021/12/18 08:39:27;;;;;;;22.80;11.00;;;8.80;99.90;;;;;;5038297;28;20661;-62
2021/12/18 08:41:54;;;;;;;22.37;11.23;;;9.00;99.90;;;;;;5038502;28;20170;-61
2021/12/18 08:44:19;;;;;;;25.00;11.77;;;8.90;99.90;;;;;;5034383;28;20749;-61
2021/12/18 08:46:45;;;;;;;22.37;11.80;;;8.90;99.90;;;;;;5034501;28;20170;-60
2021/12/18 08:49:11;;;;;;;22.80;10.93;;;8.90;99.90;;;;;;5034604;28;20177;-60
2021/12/18 08:51:38;;;;;;;23.40;11.60;;;8.90;99.90;;;;;;5044811;28;20181;-61
2021/12/18 08:54:05;;;;;;;24.17;11.80;;;8.80;99.90;;;;;;5044605;28;20185;-61
2021/12/18 08:56:31;;;;;;;27.37;12.23;;;8.90;99.90;;;;;;5053746;28;20169;-65
2021/12/18 08:58:58;;;;;;;22.33;12.10;;;8.90;99.90;;;;;;5039535;28;20182;-65
2021/12/18 09:01:26;;;;;;;23.03;12.47;;;8.90;99.90;;;;;;5052221;28;20177;-64
2021/12/18 09:03:52;;;;;;;20.47;11.70;;;8.90;99.90;;;;;;5047643;28;20218;-64
2021/12/18 09:06:19;;;;;;;24.17;11.20;;;9.00;99.90;;;;;;5033239;28;20174;-65
2021/12/18 09:08:44;;;;;;;21.73;11.33;;;9.00;99.90;;;;;;5037556;28;20182;-65
2021/12/18 09:11:10;;;;;;;19.93;11.03;;;9.00;99.90;;;;;;5033537;28;20181;-64
2021/12/18 09:13:36;;;;;;;21.33;11.70;;;8.90;99.90;;;;;;5033225;28;20260;-64
2021/12/18 09:16:02;;;;;;;20.90;11.00;;;9.00;99.90;;;;;;5036298;28;20632;-64
2021/12/18 09:18:28;;;;;;;20.40;11.23;;;8.90;99.90;;;;;;5034968;28;20205;-64
2021/12/18 09:20:54;;;;;;;22.37;11.60;;;9.00;99.90;;;;;;5036728;28;20226;-65
2021/12/18 09:23:21;;;;;;;20.73;11.03;;;9.00;99.90;;;;;;5041583;28;20216;-65
2021/12/18 09:25:48;;;;;;;21.07;10.30;;;9.80;99.90;;;;;;5053092;28;20209;-66
2021/12/18 09:28:13;;;;;;;22.10;11.23;;;9.00;99.90;;;;;;5052745;28;20188;-64
2021/12/18 09:30:40;;;;;;;21.43;10.83;;;9.00;99.90;;;;;;5053060;28;20172;-65
2021/12/18 09:33:07;;;;;;;22.10;12.23;;;9.10;99.90;;;;;;5053226;28;20169;-67
2021/12/18 09:35:33;;;;;;;19.53;11.03;;;9.10;99.90;;;;;;5052948;28;20173;-67
2021/12/18 09:37:59;;;;;;;20.93;11.53;;;9.10;99.90;;;;;;5052245;28;20501;-62
2021/12/18 09:40:25;;;;;;;21.20;10.90;;;9.10;99.90;;;;;;5049426;28;20185;-62
2021/12/18 09:42:51;;;;;;;23.07;11.70;;;9.10;99.90;;;;;;5033690;28;20212;-61
2021/12/18 09:45:17;;;;;;;20.47;10.77;;;9.10;99.90;;;;;;5040011;28;20181;-62
2021/12/18 09:47:45;;;;;;;25.07;12.00;;;10.10;99.90;;;;;;5052793;28;20209;-62
2021/12/18 09:50:11;;;;;;;27.37;12.70;;;9.10;99.90;;;;;;5052264;28;20176;-61
2021/12/18 09:52:38;;;;;;;20.30;11.20;;;9.10;99.90;;;;;;5034774;28;20589;-63
2021/12/18 09:55:06;;;;;;;18.73;11.27;;;9.20;99.90;;;;;;5031973;28;20178;-62
2021/12/18 09:57:33;;;;;;;24.37;11.87;;;9.20;99.90;;;;;;5032425;28;20629;-62
2021/12/18 09:59:59;;;;;;;21.83;11.40;;;9.20;99.90;;;;;;5033552;28;20550;-62
2021/12/18 10:02:24;;;;;;;20.80;11.10;;;9.20;99.90;;;;;;5032496;28;20184;-61
2021/12/18 10:04:51;;;;;;;20.17;11.00;;;9.20;99.90;;;;;;5032746;28;20174;-62
2021/12/18 10:07:19;;;;;;;19.90;11.40;;;9.10;99.90;;;;;;5031108;28;20228;-61
2021/12/18 10:09:46;;;;;;;21.67;11.73;;;9.10;99.90;;;;;;5032389;28;20228;-62
2021/12/18 10:12:14;;;;;;;23.90;11.70;;;9.10;99.90;;;;;;5031735;28;20223;-62
2021/12/18 10:14:58;;;;;;;24.00;11.67;;;9.10;99.90;;;;;;5032228;28;20181;-62
2021/12/18 10:17:25;;;;;;;24.10;11.33;;;9.10;99.90;;;;;;5032427;28;20640;-61
2021/12/18 10:19:53;;;;;;;23.07;11.97;;;9.20;99.90;;;;;;5032807;28;20182;-61
2021/12/18 10:22:19;;;;;;;22.13;11.40;;;9.20;99.90;;;;;;5036471;28;20222;-63
2021/12/18 10:24:58;;;;;;;21.50;11.53;;;9.20;99.90;;;;;;5032540;28;20696;-65
2021/12/18 10:27:28;;;;;;;19.53;11.47;;;9.30;99.90;;;;;;5032137;28;20264;-63
2021/12/18 10:30:17;;;;;;;24.70;13.33;;;9.30;99.90;;;;;;5032572;28;20253;-64
2021/12/18 10:33:15;;;;;;;23.77;12.93;;;9.40;99.90;;;;;;5031575;28;20189;-63
2021/12/18 10:35:50;;;;;;;22.40;12.17;;;9.30;99.90;;;;;;5048792;28;20254;-64
2021/12/18 10:38:34;;;;;;;24.50;12.90;;;9.30;99.90;;;;;;5031760;28;20189;-64
2021/12/18 10:41:00;;;;;;;23.07;12.00;;;9.40;99.90;;;;;;5036046;28;20177;-63
2021/12/18 10:43:25;;;;;;;21.17;11.43;;;9.30;99.90;;;;;;5051656;28;20300;-64
2021/12/18 10:45:51;;;;;;;21.67;11.87;;;9.40;99.90;;;;;;5051480;28;20194;-63
2021/12/18 10:48:18;;;;;;;21.80;12.10;;;9.40;99.90;;;;;;5051081;28;20178;-61
2021/12/18 10:50:53;;;;;;;23.40;12.73;;;9.40;99.90;;;;;;5051336;28;20256;-62
2021/12/18 10:53:29;;;;;;;23.50;12.37;;;9.40;99.90;;;;;;5049609;28;20173;-65
2021/12/18 10:56:03;;;;;;;23.63;12.73;;;9.40;99.90;;;;;;5033810;28;20185;-66
2021/12/18 10:58:30;;;;;;;19.77;12.33;;;9.50;99.90;;;;;;5031500;28;20212;-66
2021/12/18 11:00:58;;;;;;;21.87;12.40;;;9.50;99.90;;;;;;5031591;28;20188;-66
2021/12/18 11:03:41;;;;;;;21.33;12.20;;;9.50;99.90;;;;;;5031342;28;20214;-66
2021/12/18 11:06:27;;;;;;;21.80;12.37;;;9.50;99.90;;;;;;5031662;28;20257;-66
2021/12/18 11:09:10;;;;;;;19.47;12.73;;;9.50;99.90;;;;;;5031166;28;20586;-67
2021/12/18 11:14:19;;;;;;;21.03;12.80;;;9.60;99.90;;;;;;5048315;28;20181;-66
2021/12/18 11:16:53;;;;;;;24.23;13.13;;;9.60;99.90;;;;;;5050476;28;20199;-67
2021/12/18 11:19:22;;;;;;;21.00;12.73;;;9.60;99.90;;;;;;5037963;28;21569;-66
2021/12/18 11:21:56;;;;;;;20.70;12.53;;;9.60;99.90;;;;;;5031095;28;20206;-68
2021/12/18 11:24:31;;;;;;;22.27;12.73;;;9.60;99.90;;;;;;5031429;28;20263;-67
2021/12/18 11:27:06;;;;;;;21.17;12.67;;;9.70;99.90;;;;;;5051008;28;20256;-67
2021/12/18 11:29:44;;;;;;;24.23;13.53;;;9.80;99.90;;;;;;5064554;28;20188;-65
2021/12/18 11:32:13;;;;;;;22.00;12.77;;;9.80;99.90;;;;;;5050591;28;20208;-65
2021/12/18 11:34:39;;;;;;;20.60;12.90;;;9.80;99.90;;;;;;5054849;28;20164;-64
2021/12/18 11:37:08;;;;;;;23.33;13.77;;;9.80;99.90;;;;;;5051626;28;20690;-65
2021/12/18 11:39:36;;;;;;;24.37;15.00;;;9.70;99.90;;;;;;5049443;28;20636;-64
2021/12/18 11:42:03;;;;;;;23.03;14.13;;;9.70;99.90;;;;;;5051065;28;20181;-66
2021/12/18 11:44:43;;;;;;;24.87;14.30;;;9.80;99.90;;;;;;5050628;28;20221;-65
2021/12/18 11:47:18;;;;;;;23.37;14.50;;;9.80;99.90;;;;;;5050682;28;20179;-61
2021/12/18 11:49:43;;;;;;;23.13;13.63;;;9.90;99.90;;;;;;5050642;28;20180;-64
2021/12/18 11:52:09;;;;;;;23.93;14.60;;;9.90;99.90;;;;;;5050491;28;20529;-65
2021/12/18 11:54:50;;;;;;;23.30;14.50;;;9.80;99.90;;;;;;5050653;28;20248;-65
2021/12/18 11:57:35;;;;;;;22.13;13.60;;;9.90;99.90;;;;;;5049328;28;20193;-65
2021/12/18 12:00:04;;;;;;;23.33;14.53;;;10.00;99.90;;;;;;5049997;28;20177;-65
2021/12/18 12:02:47;;;;;;;23.93;14.63;;;10.00;99.90;;;;;;5050961;28;20275;-64
2021/12/18 12:05:15;;;;;;;21.93;13.67;;;9.90;99.90;;;;;;5053959;28;20640;-64
2021/12/18 12:07:43;;;;;;;22.13;14.13;;;10.00;99.90;;;;;;5054057;28;20184;-65
2021/12/18 12:10:24;;;;;;;23.70;14.03;;;10.10;99.90;;;;;;5054141;28;20192;-62
2021/12/18 12:12:56;;;;;;;20.83;13.77;;;10.00;99.90;;;;;;5054531;28;20227;-64
2021/12/18 12:15:26;;;;;;;22.47;12.50;;;10.10;99.90;;;;;;5054478;28;20181;-64
2021/12/18 12:18:06;;;;;;;20.30;13.27;;;10.10;99.90;;;;;;5054435;28;20173;-63
2021/12/18 12:20:37;;;;;;;20.87;13.30;;;10.00;99.90;;;;;;5054094;28;20216;-63
2021/12/18 12:23:04;;;;;;;21.07;13.20;;;10.00;99.90;;;;;;5054322;28;20232;-63
2021/12/18 12:25:50;;;;;;;19.43;12.47;;;10.10;99.90;;;;;;5054329;28;20234;-63
2021/12/18 12:28:22;;;;;;;20.97;12.83;;;10.00;99.90;;;;;;5054455;28;20188;-63
2021/12/18 12:30:59;;;;;;;19.23;12.50;;;10.00;99.90;;;;;;5054191;28;20216;-64
2021/12/18 12:33:31;;;;;;;18.80;13.20;;;10.10;99.90;;;;;;5054240;28;20230;-63
2021/12/18 12:36:01;;;;;;;18.87;12.93;;;10.20;99.90;;;;;;5054087;28;20177;-63
2021/12/18 12:38:51;;;;;;;20.80;13.00;;;10.20;99.90;;;;;;5054121;28;20256;-63
2021/12/18 12:41:36;;;;;;;20.30;12.60;;;10.20;99.90;;;;;;5052729;28;20173;-63
2021/12/18 12:44:18;;;;;;;17.93;12.37;;;10.20;99.90;;;;;;5053871;28;20237;-64
2021/12/18 12:46:45;;;;;;;20.57;12.47;;;10.20;99.90;;;;;;5053976;28;20272;-63
2021/12/18 12:49:16;;;;;;;20.50;13.33;;;10.30;99.90;;;;;;5053919;28;20169;-63
2021/12/18 12:52:05;;;;;;;20.47;12.67;;;10.30;99.90;;;;;;5053876;28;20181;-63
2021/12/18 12:54:49;;;;;;;21.23;13.67;;;10.30;99.90;;;;;;5053865;28;20242;-66
2021/12/18 12:57:27;;;;;;;17.60;12.40;;;10.20;99.90;;;;;;5053786;28;20201;-63
2021/12/18 13:00:14;;;;;;;18.43;12.47;;;10.30;99.90;;;;;;5055945;28;20480;-63
2021/12/18 13:02:52;;;;;;;18.57;13.10;;;10.20;99.90;;;;;;5061364;28;20169;-64
2021/12/18 13:05:19;;;;;;;21.03;12.10;;;9.80;99.90;;;;;;5048225;28;20199;-63
2021/12/18 13:07:54;;;;;;;21.80;13.10;;;10.30;99.90;;;;;;5060230;28;20197;-64
2021/12/18 13:10:25;;;;;;;19.03;12.17;;;10.30;99.90;;;;;;5053116;28;20177;-63
2021/12/18 13:12:53;;;;;;;20.13;13.63;;;10.40;99.90;;;;;;5053438;28;20169;-63
2021/12/18 13:15:18;;;;;;;20.03;14.00;;;10.20;99.90;;;;;;5058221;28;20252;-63
2021/12/18 13:17:44;;;;;;;31.87;18.83;;;10.30;99.90;;;;;;5064279;28;20366;-63
2021/12/18 13:20:11;;;;;;;22.10;14.53;;;10.20;99.90;;;;;;5059784;28;20176;-63
2021/12/18 13:22:36;;;;;;;24.13;15.33;;;10.30;99.90;;;;;;5058400;28;20648;-63
2021/12/18 13:25:11;;;;;;;21.87;14.20;;;10.20;99.90;;;;;;5053151;28;20184;-62
2021/12/18 13:28:00;;;;;;;20.73;13.37;;;10.30;99.90;;;;;;5053083;28;20175;-65
2021/12/18 13:30:26;;;;;;;21.80;13.50;;;10.30;99.90;;;;;;5054963;28;20177;-64
2021/12/18 13:32:57;;;;;;;19.00;13.50;;;10.40;99.90;;;;;;5062882;28;20647;-64